createdAt,value
2022-12-25T00:00:18.391Z,0
2022-12-25T00:00:43.017Z,0
2022-12-25T00:01:13.704Z,0
2022-12-25T00:01:44.418Z,0
2022-12-25T00:02:15.428Z,0
2022-12-25T00:02:46.870Z,0
2022-12-25T00:03:17.871Z,0
2022-12-25T00:03:48.912Z,0
2022-12-25T00:04:19.720Z,0
2022-12-25T00:04:51.887Z,0
2022-12-25T00:05:21.490Z,0
2022-12-25T00:05:52.633Z,0
2022-12-25T00:06:23.311Z,0
2022-12-25T00:06:54.330Z,0
2022-12-25T00:07:25.343Z,0
2022-12-25T00:07:56.500Z,0
2022-12-25T00:08:27.534Z,0
2022-12-25T00:08:58.536Z,0
2022-12-25T00:09:29.599Z,0
2022-12-25T00:10:01.441Z,0
2022-12-25T00:10:31.158Z,0
2022-12-25T00:11:02.620Z,0
2022-12-25T00:11:33.622Z,0
2022-12-25T00:12:04.314Z,0
2022-12-25T00:12:35.308Z,0
2022-12-25T00:13:06.205Z,0
2022-12-25T00:13:38.056Z,0
2022-12-25T00:14:08.730Z,0
2022-12-25T00:14:39.652Z,0
2022-12-25T00:15:11.896Z,0
2022-12-25T00:15:41.319Z,0
2022-12-25T00:16:12.871Z,0
2022-12-25T00:16:43.610Z,0
2022-12-25T00:17:14.314Z,0
2022-12-25T00:17:45.560Z,0
2022-12-25T00:18:16.858Z,0
2022-12-25T00:18:47.848Z,0
2022-12-25T00:19:18.230Z,0
2022-12-25T00:19:49.336Z,0
2022-12-25T00:20:21.203Z,0
2022-12-25T00:20:51.427Z,0
2022-12-25T00:21:22.328Z,0
2022-12-25T00:21:53.261Z,0
2022-12-25T00:22:24.334Z,0
2022-12-25T00:22:55.569Z,0
2022-12-25T00:23:26.728Z,0
2022-12-25T00:23:57.556Z,0
2022-12-25T00:24:28.478Z,0
2022-12-25T00:24:59.342Z,0
2022-12-25T00:25:31.538Z,0
2022-12-25T00:26:01.520Z,0
2022-12-25T00:26:32.527Z,0
2022-12-25T00:27:03.422Z,0
2022-12-25T00:27:34.330Z,0
2022-12-25T00:28:05.277Z,0
2022-12-25T00:28:36.469Z,0
2022-12-25T00:29:07.209Z,0
2022-12-25T00:29:38.420Z,0
2022-12-25T00:30:09.341Z,0
2022-12-25T00:30:41.397Z,0
2022-12-25T00:31:11.417Z,0
2022-12-25T00:31:42.511Z,0
2022-12-25T00:32:13.134Z,0
2022-12-25T00:32:44.349Z,0
2022-12-25T00:33:15.296Z,0
2022-12-25T00:33:46.282Z,0
2022-12-25T00:34:17.553Z,0
2022-12-25T00:34:48.542Z,0
2022-12-25T00:35:19.410Z,1.12
2022-12-25T00:35:51.311Z,.64
2022-12-25T00:36:21.330Z,0
2022-12-25T00:36:52.662Z,0
2022-12-25T00:37:23.417Z,0
2022-12-25T00:37:54.231Z,0
2022-12-25T00:38:25.478Z,0
2022-12-25T00:38:56.203Z,0
2022-12-25T00:39:27.198Z,0
2022-12-25T00:39:58.379Z,.32
2022-12-25T00:40:29.612Z,0
2022-12-25T00:41:01.547Z,.32
2022-12-25T00:41:31.323Z,1.12
2022-12-25T00:42:02.380Z,.32
2022-12-25T00:42:33.513Z,0
2022-12-25T00:43:04.402Z,1.12
2022-12-25T00:43:35.240Z,1.44
2022-12-25T00:44:06.406Z,0
2022-12-25T00:44:37.283Z,0
2022-12-25T00:45:09.342Z,0
2022-12-25T00:45:39.229Z,0
2022-12-25T00:46:11.442Z,0
2022-12-25T00:46:41.514Z,.32
2022-12-25T00:47:12.797Z,.32
2022-12-25T00:47:43.280Z,.32
2022-12-25T00:48:14.593Z,0
2022-12-25T00:48:45.540Z,0
2022-12-25T00:49:16.319Z,0
2022-12-25T00:49:47.428Z,.32
2022-12-25T00:50:18.512Z,2.09
2022-12-25T00:50:49.466Z,.32
2022-12-25T00:51:21.537Z,1.12
2022-12-25T00:51:51.144Z,0
2022-12-25T00:52:22.241Z,0
2022-12-25T00:52:53.434Z,0
2022-12-25T00:53:24.336Z,0
2022-12-25T00:53:55.361Z,0
2022-12-25T00:54:26.411Z,0
2022-12-25T00:54:57.440Z,0
2022-12-25T00:55:28.545Z,0
2022-12-25T00:55:59.624Z,0
2022-12-25T00:56:31.407Z,0
2022-12-25T00:57:01.465Z,0
2022-12-25T00:57:32.695Z,0
2022-12-25T00:58:03.368Z,0
2022-12-25T00:58:34.567Z,0
2022-12-25T00:59:05.375Z,0
2022-12-25T00:59:36.371Z,0
2022-12-25T01:00:10.937Z,0
2022-12-25T01:00:38.679Z,0
2022-12-25T01:01:10.595Z,0
2022-12-25T01:01:41.870Z,0
2022-12-25T01:02:11.626Z,0
2022-12-25T01:02:42.848Z,0
2022-12-25T01:03:13.727Z,0
2022-12-25T01:03:44.647Z,0
2022-12-25T01:04:15.543Z,0
2022-12-25T01:04:46.912Z,0
2022-12-25T01:05:17.596Z,0
2022-12-25T01:05:48.252Z,0
2022-12-25T01:06:19.222Z,0
2022-12-25T01:06:51.423Z,0
2022-12-25T01:07:21.434Z,0
2022-12-25T01:07:52.253Z,0
2022-12-25T01:08:23.385Z,0
2022-12-25T01:08:54.294Z,0
2022-12-25T01:09:25.429Z,0
2022-12-25T01:09:56.403Z,0
2022-12-25T01:10:27.474Z,0
2022-12-25T01:10:58.980Z,0
2022-12-25T01:11:29.531Z,0
2022-12-25T01:12:02.180Z,0
2022-12-25T01:12:31.619Z,0
2022-12-25T01:13:02.846Z,0
2022-12-25T01:13:33.682Z,0
2022-12-25T01:14:04.645Z,0
2022-12-25T01:14:35.845Z,0
2022-12-25T01:15:10.409Z,0
2022-12-25T01:15:38.806Z,0
2022-12-25T01:16:09.514Z,0
2022-12-25T01:16:39.471Z,0
2022-12-25T01:17:11.410Z,0
2022-12-25T01:17:41.518Z,0
2022-12-25T01:18:13.093Z,0
2022-12-25T01:18:43.373Z,0
2022-12-25T01:19:14.418Z,0
2022-12-25T01:19:45.725Z,0
2022-12-25T01:20:16.635Z,0
2022-12-25T01:20:47.454Z,0
2022-12-25T01:21:18.885Z,0
2022-12-25T01:21:49.688Z,0
2022-12-25T01:22:21.876Z,0
2022-12-25T01:22:51.830Z,0
2022-12-25T01:23:22.579Z,0
2022-12-25T01:23:53.641Z,0
2022-12-25T01:24:24.667Z,0
2022-12-25T01:24:55.626Z,0
2022-12-25T01:25:26.559Z,0
2022-12-25T01:25:57.857Z,0
2022-12-25T01:26:28.863Z,0
2022-12-25T01:26:59.443Z,0
2022-12-25T01:27:31.555Z,0
2022-12-25T01:28:01.565Z,0
2022-12-25T01:28:32.482Z,0
2022-12-25T01:29:03.488Z,0
2022-12-25T01:29:34.193Z,.32
2022-12-25T01:30:08.011Z,0
2022-12-25T01:30:36.157Z,0
2022-12-25T01:31:07.454Z,0
2022-12-25T01:31:38.318Z,0
2022-12-25T01:32:09.396Z,0
2022-12-25T01:32:41.208Z,.32
2022-12-25T01:33:11.211Z,0
2022-12-25T01:33:42.369Z,0
2022-12-25T01:34:13.603Z,0
2022-12-25T01:34:47.150Z,0
2022-12-25T01:35:15.525Z,0
2022-12-25T01:35:48.799Z,0
2022-12-25T01:36:17.324Z,0
2022-12-25T01:36:48.791Z,0
2022-12-25T01:37:19.284Z,0
2022-12-25T01:37:51.660Z,0
2022-12-25T01:38:21.558Z,0
2022-12-25T01:38:52.738Z,0
2022-12-25T01:39:23.489Z,0
2022-12-25T01:39:54.507Z,0
2022-12-25T01:44:00.552Z,0
2022-12-25T01:44:28.400Z,0
2022-12-25T01:45:01.005Z,0
2022-12-25T01:45:43.063Z,.32
2022-12-25T01:46:07.082Z,0
2022-12-25T01:46:41.202Z,0
2022-12-25T01:47:08.591Z,0
2022-12-25T01:47:40.106Z,0
2022-12-25T01:48:11.613Z,0
2022-12-25T01:48:41.616Z,0
2022-12-25T01:49:12.832Z,0
2022-12-25T01:49:43.882Z,0
2022-12-25T01:50:14.424Z,0
2022-12-25T01:50:45.571Z,0
2022-12-25T01:51:16.609Z,0
2022-12-25T01:51:47.622Z,0
2022-12-25T01:52:23.567Z,1.12
2022-12-25T01:52:49.476Z,0
2022-12-25T01:53:21.503Z,0
2022-12-25T01:53:51.398Z,0
2022-12-25T01:54:22.439Z,0
2022-12-25T01:54:53.330Z,0
2022-12-25T01:55:24.453Z,0
2022-12-25T01:55:55.682Z,0
2022-12-25T01:56:26.563Z,0
2022-12-25T01:56:57.688Z,0
2022-12-25T01:57:29.464Z,0
2022-12-25T01:57:59.717Z,0
2022-12-25T01:58:31.520Z,0
2022-12-25T01:59:01.412Z,0
2022-12-25T01:59:32.477Z,0
2022-12-25T02:00:06.971Z,0
2022-12-25T02:00:34.280Z,0
2022-12-25T02:01:05.289Z,0
2022-12-25T02:01:36.783Z,0
2022-12-25T02:02:07.601Z,0
2022-12-25T02:02:38.597Z,0
2022-12-25T02:03:09.631Z,0
2022-12-25T02:03:41.501Z,0
2022-12-25T02:04:11.529Z,0
2022-12-25T02:04:42.294Z,1.12
2022-12-25T02:05:13.311Z,.32
2022-12-25T02:05:44.395Z,0
2022-12-25T02:06:15.419Z,0
2022-12-25T02:06:46.250Z,0
2022-12-25T02:07:17.501Z,0
2022-12-25T02:07:48.244Z,.32
2022-12-25T02:08:19.474Z,0
2022-12-25T02:08:51.625Z,0
2022-12-25T02:09:21.409Z,0
2022-12-25T02:09:52.433Z,0
2022-12-25T02:10:23.420Z,.32
2022-12-25T02:10:54.486Z,0
2022-12-25T02:11:25.539Z,0
2022-12-25T02:11:56.420Z,.32
2022-12-25T02:12:27.283Z,0
2022-12-25T02:12:58.550Z,0
2022-12-25T02:13:29.265Z,0
2022-12-25T02:14:01.371Z,0
2022-12-25T02:14:31.361Z,0
2022-12-25T02:15:06.110Z,0
2022-12-25T02:15:33.421Z,0
2022-12-25T02:16:04.443Z,0
2022-12-25T02:16:56.854Z,0
2022-12-25T02:17:06.487Z,0
2022-12-25T02:17:37.486Z,0
2022-12-25T02:18:08.303Z,0
2022-12-25T02:18:39.277Z,0
2022-12-25T02:19:11.444Z,0
2022-12-25T02:19:41.513Z,0
2022-12-25T02:20:12.286Z,0
2022-12-25T02:20:43.447Z,0
2022-12-25T02:21:14.407Z,0
2022-12-25T02:21:45.568Z,0
2022-12-25T02:22:16.452Z,0
2022-12-25T02:22:47.193Z,0
2022-12-25T02:23:18.215Z,0
2022-12-25T02:23:49.434Z,0
2022-12-25T02:24:21.571Z,0
2022-12-25T02:24:51.575Z,0
2022-12-25T02:25:22.489Z,.32
2022-12-25T02:25:53.383Z,.64
2022-12-25T02:26:24.519Z,0
2022-12-25T02:26:55.606Z,0
2022-12-25T02:27:26.491Z,.32
2022-12-25T02:27:57.268Z,0
2022-12-25T02:28:28.442Z,0
2022-12-25T02:28:59.469Z,0
2022-12-25T02:29:31.586Z,0
2022-12-25T02:30:04.222Z,0
2022-12-25T02:30:32.410Z,0
2022-12-25T02:31:03.203Z,0
2022-12-25T02:31:34.538Z,0
2022-12-25T02:32:05.514Z,0
2022-12-25T02:32:36.557Z,0
2022-12-25T02:33:07.517Z,0
2022-12-25T02:33:38.452Z,0
2022-12-25T02:34:09.303Z,1.44
2022-12-25T02:34:41.734Z,0
2022-12-25T02:35:11.456Z,0
2022-12-25T02:35:42.288Z,.64
2022-12-25T02:36:13.530Z,0
2022-12-25T02:36:44.550Z,0
2022-12-25T02:37:15.596Z,0
2022-12-25T02:37:46.527Z,0
2022-12-25T02:38:17.496Z,0
2022-12-25T02:38:48.199Z,0
2022-12-25T02:39:19.373Z,0
2022-12-25T02:39:51.516Z,0
2022-12-25T02:40:21.591Z,0
2022-12-25T02:40:52.610Z,0
2022-12-25T02:41:23.382Z,0
2022-12-25T02:41:54.496Z,0
2022-12-25T02:42:25.595Z,0
2022-12-25T02:42:56.484Z,1.77
2022-12-25T02:43:27.325Z,.32
2022-12-25T02:43:58.410Z,0
2022-12-25T02:44:29.324Z,0
2022-12-25T02:45:04.448Z,.32
2022-12-25T02:45:31.534Z,0
2022-12-25T02:46:02.354Z,0
2022-12-25T02:46:33.397Z,0
2022-12-25T02:47:04.513Z,0
2022-12-25T02:47:35.466Z,0
2022-12-25T02:48:06.257Z,0
2022-12-25T02:48:37.566Z,0
2022-12-25T02:49:08.436Z,0
2022-12-25T02:49:39.437Z,0
2022-12-25T02:50:11.610Z,0
2022-12-25T02:50:41.497Z,0
2022-12-25T02:51:12.373Z,0
2022-12-25T02:51:43.654Z,.64
2022-12-25T02:52:14.429Z,1.12
2022-12-25T02:52:45.339Z,1.12
2022-12-25T02:53:16.515Z,.64
2022-12-25T02:53:47.470Z,1.44
2022-12-25T02:54:18.202Z,.64
2022-12-25T02:54:49.515Z,1.12
2022-12-25T02:55:21.254Z,0
2022-12-25T02:55:51.433Z,0
2022-12-25T02:56:22.553Z,0
2022-12-25T02:56:53.603Z,0
2022-12-25T02:57:24.319Z,0
2022-12-25T02:57:55.342Z,.32
2022-12-25T02:58:26.423Z,0
2022-12-25T02:58:57.437Z,0
2022-12-25T02:59:28.369Z,1.12
2022-12-25T02:59:59.161Z,1.12
2022-12-25T03:00:34.359Z,.32
2022-12-25T03:01:01.529Z,0
2022-12-25T03:01:32.589Z,0
2022-12-25T03:02:03.322Z,0
2022-12-25T03:02:34.444Z,0
2022-12-25T03:03:05.536Z,0
2022-12-25T03:03:36.689Z,0
2022-12-25T03:04:07.702Z,0
2022-12-25T03:04:38.489Z,0
2022-12-25T03:05:09.318Z,0
2022-12-25T03:05:41.626Z,0
2022-12-25T03:06:11.611Z,0
2022-12-25T03:06:42.402Z,0
2022-12-25T03:07:13.486Z,0
2022-12-25T03:07:44.554Z,0
2022-12-25T03:08:15.824Z,0
2022-12-25T03:08:46.558Z,0
2022-12-25T03:09:17.444Z,0
2022-12-25T03:09:48.229Z,0
2022-12-25T03:10:19.564Z,.32
2022-12-25T03:10:51.629Z,1.44
2022-12-25T03:11:21.357Z,0
2022-12-25T03:11:52.453Z,.32
2022-12-25T03:12:23.526Z,0
2022-12-25T03:12:54.493Z,1.12
2022-12-25T03:13:25.559Z,1.44
2022-12-25T03:13:56.367Z,.32
2022-12-25T03:14:27.391Z,1.12
2022-12-25T03:14:58.470Z,0
2022-12-25T03:15:32.212Z,0
2022-12-25T03:16:01.648Z,0
2022-12-25T03:16:31.638Z,0
2022-12-25T03:17:02.334Z,0
2022-12-25T03:17:33.329Z,0
2022-12-25T03:18:04.250Z,0
2022-12-25T03:18:35.245Z,1.12
2022-12-25T03:19:06.413Z,0
2022-12-25T03:19:37.295Z,0
2022-12-25T03:20:08.559Z,0
2022-12-25T03:20:39.423Z,0
2022-12-25T03:21:11.458Z,0
2022-12-25T03:21:41.517Z,0
2022-12-25T03:22:12.426Z,0
2022-12-25T03:22:43.574Z,0
2022-12-25T03:23:14.314Z,0
2022-12-25T03:23:45.546Z,0
2022-12-25T03:24:16.541Z,0
2022-12-25T03:24:47.459Z,0
2022-12-25T03:25:18.275Z,0
2022-12-25T03:25:49.411Z,0
2022-12-25T03:26:21.302Z,0
2022-12-25T03:26:51.643Z,0
2022-12-25T03:27:22.414Z,.32
2022-12-25T03:27:53.547Z,0
2022-12-25T03:28:24.447Z,.32
2022-12-25T03:28:55.516Z,0
2022-12-25T03:29:31.603Z,1.44
2022-12-25T03:29:57.437Z,.64
2022-12-25T03:30:31.344Z,2.09
2022-12-25T03:30:59.472Z,2.89
2022-12-25T03:31:31.606Z,.64
2022-12-25T03:32:01.567Z,1.44
2022-12-25T03:32:32.415Z,.32
2022-12-25T03:33:13.608Z,0
2022-12-25T03:34:05.560Z,0
2022-12-25T03:34:36.614Z,0
2022-12-25T03:35:07.541Z,.32
2022-12-25T03:35:38.586Z,1.12
2022-12-25T03:36:09.509Z,1.77
2022-12-25T03:36:41.704Z,1.12
2022-12-25T03:37:11.723Z,.32
2022-12-25T03:37:42.468Z,0
2022-12-25T03:38:13.354Z,0
2022-12-25T03:38:44.325Z,0
2022-12-25T03:39:15.426Z,0
2022-12-25T03:39:46.247Z,0
2022-12-25T03:40:17.418Z,0
2022-12-25T03:40:48.316Z,0
2022-12-25T03:41:19.430Z,0
2022-12-25T03:41:51.653Z,0
2022-12-25T03:42:21.506Z,0
2022-12-25T03:42:52.373Z,1.44
2022-12-25T03:43:23.411Z,1.77
2022-12-25T03:43:54.487Z,1.77
2022-12-25T03:44:25.497Z,0
2022-12-25T03:44:56.616Z,0
2022-12-25T03:45:30.369Z,0
2022-12-25T03:45:58.718Z,0
2022-12-25T03:46:29.429Z,0
2022-12-25T03:47:01.599Z,0
2022-12-25T03:47:31.596Z,0
2022-12-25T03:48:02.471Z,0
2022-12-25T03:48:33.306Z,0
2022-12-25T03:49:04.203Z,0
2022-12-25T03:49:35.602Z,0
2022-12-25T03:50:06.641Z,0
2022-12-25T03:50:37.660Z,0
2022-12-25T03:51:08.643Z,0
2022-12-25T03:51:39.526Z,0
2022-12-25T03:52:11.621Z,0
2022-12-25T03:52:41.703Z,0
2022-12-25T03:53:12.525Z,0
2022-12-25T03:53:43.605Z,0
2022-12-25T03:54:14.523Z,0
2022-12-25T03:54:45.621Z,0
2022-12-25T03:55:16.628Z,0
2022-12-25T03:55:47.451Z,0
2022-12-25T03:56:18.294Z,0
2022-12-25T03:56:49.276Z,0
2022-12-25T03:57:21.871Z,0
2022-12-25T03:57:51.580Z,0
2022-12-25T03:58:22.303Z,.32
2022-12-25T03:58:53.331Z,1.12
2022-12-25T03:59:24.507Z,0
2022-12-25T03:59:55.511Z,0
2022-12-25T04:00:29.110Z,0
2022-12-25T04:00:57.535Z,0
2022-12-25T04:01:28.803Z,0
2022-12-25T04:01:59.680Z,0
2022-12-25T04:02:31.741Z,0
2022-12-25T04:03:01.520Z,0
2022-12-25T04:03:32.543Z,0
2022-12-25T04:04:03.522Z,0
2022-12-25T04:04:34.337Z,0
2022-12-25T04:05:05.471Z,0
2022-12-25T04:05:36.542Z,0
2022-12-25T04:06:07.514Z,0
2022-12-25T04:06:38.454Z,0
2022-12-25T04:07:09.671Z,0
2022-12-25T04:07:41.378Z,0
2022-12-25T04:08:11.405Z,0
2022-12-25T04:08:42.466Z,0
2022-12-25T04:09:13.323Z,0
2022-12-25T04:09:44.380Z,0
2022-12-25T04:10:15.426Z,0
2022-12-25T04:10:46.430Z,0
2022-12-25T04:11:17.665Z,0
2022-12-25T04:11:48.505Z,0
2022-12-25T04:12:19.318Z,0
2022-12-25T04:12:51.522Z,0
2022-12-25T04:13:21.492Z,0
2022-12-25T04:13:52.510Z,0
2022-12-25T04:14:23.705Z,0
2022-12-25T04:14:54.651Z,0
2022-12-25T04:15:28.504Z,0
2022-12-25T04:15:56.615Z,0
2022-12-25T04:16:27.700Z,0
2022-12-25T04:16:58.447Z,0
2022-12-25T04:17:29.645Z,0
2022-12-25T04:18:01.428Z,0
2022-12-25T04:18:31.380Z,0
2022-12-25T04:19:02.654Z,0
2022-12-25T04:19:33.398Z,0
2022-12-25T04:20:04.300Z,0
2022-12-25T04:20:35.695Z,0
2022-12-25T04:21:06.654Z,0
2022-12-25T04:21:37.559Z,0
2022-12-25T04:22:08.533Z,0
2022-12-25T04:22:39.527Z,0
2022-12-25T04:23:11.583Z,0
2022-12-25T04:23:41.583Z,0
2022-12-25T04:24:12.453Z,0
2022-12-25T04:24:43.219Z,0
2022-12-25T04:25:14.660Z,0
2022-12-25T04:25:45.578Z,0
2022-12-25T04:26:16.294Z,0
2022-12-25T04:26:47.635Z,0
2022-12-25T04:27:18.468Z,0
2022-12-25T04:27:49.422Z,0
2022-12-25T04:28:21.591Z,0
2022-12-25T04:28:51.621Z,0
2022-12-25T04:29:22.647Z,0
2022-12-25T04:29:53.526Z,0
2022-12-25T04:30:27.354Z,0
2022-12-25T04:30:55.443Z,0
2022-12-25T04:31:26.613Z,0
2022-12-25T04:31:57.427Z,.32
2022-12-25T04:32:28.267Z,0
2022-12-25T04:32:59.649Z,0
2022-12-25T04:33:31.230Z,0
2022-12-25T04:34:01.185Z,0
2022-12-25T04:34:32.489Z,0
2022-12-25T04:35:03.567Z,0
2022-12-25T04:35:34.356Z,0
2022-12-25T04:36:05.442Z,0
2022-12-25T04:36:36.576Z,0
2022-12-25T04:37:07.652Z,0
2022-12-25T04:37:38.548Z,0
2022-12-25T04:38:09.666Z,0
2022-12-25T04:38:41.521Z,0
2022-12-25T04:39:11.601Z,0
2022-12-25T04:39:42.581Z,0
2022-12-25T04:40:13.296Z,0
2022-12-25T04:40:44.687Z,0
2022-12-25T04:41:15.449Z,0
2022-12-25T04:41:46.378Z,0
2022-12-25T04:42:17.773Z,0
2022-12-25T04:42:48.477Z,0
2022-12-25T04:43:19.396Z,0
2022-12-25T04:43:51.614Z,0
2022-12-25T04:44:21.617Z,0
2022-12-25T04:44:52.467Z,0
2022-12-25T04:45:26.573Z,0
2022-12-25T04:45:54.621Z,.32
2022-12-25T04:46:25.813Z,.32
2022-12-25T04:46:56.764Z,0
2022-12-25T04:47:27.579Z,0
2022-12-25T04:47:58.300Z,0
2022-12-25T04:48:29.775Z,0
2022-12-25T04:49:01.386Z,0
2022-12-25T04:49:31.453Z,0
2022-12-25T04:50:02.506Z,0
2022-12-25T04:50:33.530Z,0
2022-12-25T04:51:04.571Z,0
2022-12-25T04:51:35.633Z,0
2022-12-25T04:52:06.565Z,0
2022-12-25T04:52:37.620Z,0
2022-12-25T04:53:08.708Z,0
2022-12-25T04:53:39.532Z,0
2022-12-25T04:54:11.605Z,0
2022-12-25T04:54:41.616Z,0
2022-12-25T04:55:12.495Z,0
2022-12-25T04:55:43.418Z,0
2022-12-25T04:58:49.540Z,0
2022-12-25T04:59:21.522Z,0
2022-12-25T04:59:51.615Z,0
2022-12-25T05:00:25.425Z,0
2022-12-25T05:00:53.510Z,0
2022-12-25T05:01:24.632Z,0
2022-12-25T05:01:55.612Z,0
2022-12-25T05:02:26.815Z,0
2022-12-25T05:02:57.719Z,0
2022-12-25T05:03:28.506Z,0
2022-12-25T05:03:59.767Z,0
2022-12-25T05:04:31.492Z,0
2022-12-25T05:05:01.488Z,0
2022-12-25T05:05:32.519Z,0
2022-12-25T05:06:03.551Z,0
2022-12-25T05:06:34.491Z,0
2022-12-25T05:07:05.676Z,0
2022-12-25T05:07:36.671Z,0
2022-12-25T05:08:07.532Z,0
2022-12-25T05:08:38.745Z,0
2022-12-25T05:09:09.558Z,0
2022-12-25T05:09:41.924Z,0
2022-12-25T05:10:11.763Z,0
2022-12-25T05:10:42.573Z,0
2022-12-25T05:11:13.427Z,0
2022-12-25T05:11:44.429Z,0
2022-12-25T05:12:15.522Z,0
2022-12-25T05:12:46.372Z,0
2022-12-25T05:13:17.367Z,0
2022-12-25T05:13:48.567Z,0
2022-12-25T05:14:19.504Z,0
2022-12-25T05:14:51.739Z,0
2022-12-25T05:15:24.362Z,0
2022-12-25T05:15:52.644Z,0
2022-12-25T05:16:23.582Z,0
2022-12-25T05:16:54.652Z,0
2022-12-25T05:17:25.562Z,0
2022-12-25T05:17:56.491Z,0
2022-12-25T05:18:27.601Z,0
2022-12-25T05:18:58.464Z,0
2022-12-25T05:19:29.695Z,0
2022-12-25T05:20:01.534Z,0
2022-12-25T05:20:37.966Z,0
2022-12-25T05:21:02.523Z,0
2022-12-25T05:21:33.573Z,0
2022-12-25T05:22:04.445Z,0
2022-12-25T05:22:35.551Z,0
2022-12-25T05:23:06.643Z,.32
2022-12-25T05:23:37.494Z,0
2022-12-25T05:24:08.839Z,.64
2022-12-25T05:24:39.642Z,.32
2022-12-25T05:25:29.612Z,0
2022-12-25T05:25:41.708Z,.32
2022-12-25T05:26:12.494Z,0
2022-12-25T05:26:43.746Z,0
2022-12-25T05:27:14.375Z,0
2022-12-25T05:27:50.317Z,0
2022-12-25T05:28:16.620Z,0
2022-12-25T05:28:47.547Z,0
2022-12-25T05:29:18.708Z,0
2022-12-25T05:29:49.688Z,0
2022-12-25T05:30:24.507Z,0
2022-12-25T05:30:51.762Z,0
2022-12-25T05:31:22.739Z,0
2022-12-25T05:31:53.654Z,0
2022-12-25T05:32:24.495Z,0
2022-12-25T05:32:55.268Z,0
2022-12-25T05:33:26.619Z,0
2022-12-25T05:33:57.575Z,0
2022-12-25T05:34:28.369Z,0
2022-12-25T05:34:59.454Z,0
2022-12-25T05:35:31.704Z,0
2022-12-25T05:36:01.767Z,0
2022-12-25T05:36:32.607Z,0
2022-12-25T05:37:03.738Z,0
2022-12-25T05:37:34.618Z,0
2022-12-25T05:38:05.935Z,0
2022-12-25T05:38:36.655Z,1.12
2022-12-25T05:39:07.492Z,1.44
2022-12-25T05:39:38.659Z,1.77
2022-12-25T05:40:09.535Z,1.77
2022-12-25T05:40:41.587Z,1.12
2022-12-25T05:41:11.806Z,0
2022-12-25T05:41:42.533Z,0
2022-12-25T05:42:13.516Z,0
2022-12-25T05:42:44.424Z,0
2022-12-25T05:43:15.659Z,0
2022-12-25T05:43:46.368Z,0
2022-12-25T05:44:17.520Z,0
2022-12-25T05:44:48.517Z,0
2022-12-25T05:45:22.365Z,0
2022-12-25T05:45:51.623Z,0
2022-12-25T05:46:21.920Z,0
2022-12-25T05:46:52.786Z,0
2022-12-25T05:47:23.644Z,0
2022-12-25T05:47:54.567Z,0
2022-12-25T05:48:25.406Z,0
2022-12-25T05:48:56.671Z,0
2022-12-25T05:49:27.600Z,0
2022-12-25T05:49:58.568Z,.32
2022-12-25T05:50:29.425Z,0
2022-12-25T05:51:01.739Z,0
2022-12-25T05:51:31.489Z,0
2022-12-25T05:52:02.511Z,0
2022-12-25T05:52:33.412Z,0
2022-12-25T05:53:08.019Z,0
2022-12-25T05:53:35.436Z,0
2022-12-25T05:54:06.653Z,0
2022-12-25T05:54:37.707Z,0
2022-12-25T05:55:08.655Z,0
2022-12-25T05:55:39.537Z,0
2022-12-25T05:56:11.704Z,0
2022-12-25T05:56:41.741Z,0
2022-12-25T05:57:12.666Z,0
2022-12-25T05:57:43.521Z,0
2022-12-25T05:58:14.527Z,0
2022-12-25T05:58:45.761Z,0
2022-12-25T05:59:16.425Z,0
2022-12-25T05:59:47.611Z,.32
2022-12-25T06:00:21.366Z,0
2022-12-25T06:00:49.604Z,0
2022-12-25T06:01:21.782Z,0
2022-12-25T06:01:51.685Z,0
2022-12-25T06:02:22.692Z,0
2022-12-25T06:02:53.849Z,0
2022-12-25T06:03:24.793Z,0
2022-12-25T06:03:55.555Z,0
2022-12-25T06:04:26.742Z,0
2022-12-25T06:04:57.638Z,0
2022-12-25T06:05:28.484Z,0
2022-12-25T06:05:59.468Z,0
2022-12-25T06:06:31.676Z,0
2022-12-25T06:07:01.762Z,0
2022-12-25T06:07:32.541Z,0
2022-12-25T06:08:03.434Z,.32
2022-12-25T06:08:34.703Z,0
2022-12-25T06:09:05.652Z,0
2022-12-25T06:09:36.714Z,1.44
2022-12-25T06:10:07.659Z,2.09
2022-12-25T06:10:38.762Z,1.44
2022-12-25T06:11:09.549Z,.64
2022-12-25T06:11:41.913Z,1.44
2022-12-25T06:12:11.846Z,1.77
2022-12-25T06:12:42.694Z,1.44
2022-12-25T06:13:13.545Z,1.44
2022-12-25T06:13:44.427Z,0
2022-12-25T06:14:15.705Z,0
2022-12-25T06:14:46.615Z,0
2022-12-25T06:15:20.722Z,1.77
2022-12-25T06:15:48.710Z,1.77
2022-12-25T06:16:19.788Z,1.44
2022-12-25T06:16:51.811Z,1.77
2022-12-25T06:17:21.520Z,1.12
2022-12-25T06:17:52.838Z,1.12
2022-12-25T06:18:23.923Z,1.12
2022-12-25T06:18:54.679Z,.32
2022-12-25T06:19:25.484Z,0
2022-12-25T06:19:56.748Z,0
2022-12-25T06:20:27.742Z,0
2022-12-25T06:20:58.528Z,0
2022-12-25T06:21:29.554Z,0
2022-12-25T06:22:01.452Z,0
2022-12-25T06:22:31.676Z,0
2022-12-25T06:23:02.704Z,0
2022-12-25T06:23:33.859Z,0
2022-12-25T06:24:04.582Z,0
2022-12-25T06:24:35.625Z,0
2022-12-25T06:25:06.653Z,0
2022-12-25T06:25:37.644Z,0
2022-12-25T06:26:08.835Z,0
2022-12-25T06:26:39.674Z,0
2022-12-25T06:27:11.772Z,0
2022-12-25T06:27:41.712Z,0
2022-12-25T06:28:12.749Z,0
2022-12-25T06:28:43.464Z,0
2022-12-25T06:29:14.404Z,0
2022-12-25T06:29:45.674Z,0
2022-12-25T06:30:19.449Z,0
2022-12-25T06:30:47.676Z,0
2022-12-25T06:31:18.694Z,0
2022-12-25T06:31:49.771Z,0
2022-12-25T06:32:21.673Z,0
2022-12-25T06:32:51.718Z,0
2022-12-25T06:33:22.680Z,0
2022-12-25T06:33:53.732Z,0
2022-12-25T06:34:24.601Z,0
2022-12-25T06:34:55.630Z,0
2022-12-25T06:35:26.555Z,0
2022-12-25T06:35:57.576Z,0
2022-12-25T06:36:28.505Z,0
2022-12-25T06:36:59.450Z,0
2022-12-25T06:37:31.695Z,0
2022-12-25T06:38:01.651Z,0
2022-12-25T06:38:32.715Z,0
2022-12-25T06:39:03.618Z,0
2022-12-25T06:39:34.735Z,0
2022-12-25T06:40:05.661Z,0
2022-12-25T06:40:36.477Z,0
2022-12-25T06:41:07.729Z,0
2022-12-25T06:41:38.771Z,0
2022-12-25T06:42:09.701Z,0
2022-12-25T06:42:41.748Z,0
2022-12-25T06:43:11.904Z,0
2022-12-25T06:43:42.655Z,0
2022-12-25T06:44:13.695Z,0
2022-12-25T06:44:44.510Z,0
2022-12-25T06:45:18.379Z,0
2022-12-25T06:45:46.677Z,0
2022-12-25T06:46:17.741Z,0
2022-12-25T06:46:48.695Z,0
2022-12-25T06:47:19.728Z,0
2022-12-25T06:47:51.686Z,0
2022-12-25T06:48:21.647Z,0
2022-12-25T06:48:52.657Z,0
2022-12-25T06:49:23.780Z,0
2022-12-25T06:49:54.572Z,0
2022-12-25T06:50:25.632Z,0
2022-12-25T06:50:56.854Z,0
2022-12-25T06:51:27.806Z,0
2022-12-25T06:51:58.658Z,0
2022-12-25T06:52:29.386Z,0
2022-12-25T06:53:01.721Z,0
2022-12-25T06:53:38.846Z,0
2022-12-25T06:54:02.705Z,0
2022-12-25T06:54:33.538Z,0
2022-12-25T06:55:04.677Z,0
2022-12-25T06:55:35.554Z,0
2022-12-25T06:56:06.709Z,0
2022-12-25T06:56:37.762Z,0
2022-12-25T06:57:08.802Z,0
2022-12-25T06:57:41.223Z,0
2022-12-25T06:58:11.715Z,0
2022-12-25T06:58:41.615Z,0
2022-12-25T06:59:12.635Z,0
2022-12-25T06:59:43.591Z,0
2022-12-25T07:00:17.348Z,0
2022-12-25T07:00:45.620Z,0
2022-12-25T07:01:16.881Z,0
2022-12-25T07:01:47.963Z,0
2022-12-25T07:02:18.802Z,0
2022-12-25T07:02:49.909Z,0
2022-12-25T07:03:21.569Z,0
2022-12-25T07:03:51.625Z,0
2022-12-25T07:04:22.656Z,0
2022-12-25T07:04:53.808Z,0
2022-12-25T07:05:24.753Z,0
2022-12-25T07:05:55.929Z,0
2022-12-25T07:06:26.663Z,0
2022-12-25T07:06:59.904Z,0
2022-12-25T07:07:28.662Z,0
2022-12-25T07:07:59.499Z,0
2022-12-25T07:08:31.588Z,0
2022-12-25T07:09:01.615Z,0
2022-12-25T07:09:32.707Z,0
2022-12-25T07:10:03.607Z,0
2022-12-25T07:10:35.094Z,0
2022-12-25T07:11:05.849Z,0
2022-12-25T07:11:36.646Z,0
2022-12-25T07:12:07.936Z,0
2022-12-25T07:12:38.828Z,0
2022-12-25T07:13:09.924Z,0
2022-12-25T07:13:41.775Z,0
2022-12-25T07:14:11.852Z,0
2022-12-25T07:14:42.759Z,0
2022-12-25T07:15:17.033Z,0
2022-12-25T07:15:44.711Z,0
2022-12-25T07:16:15.935Z,0
2022-12-25T07:16:47.047Z,0
2022-12-25T07:17:18.003Z,0
2022-12-25T07:17:48.687Z,0
2022-12-25T07:18:19.858Z,0
2022-12-25T07:18:52.102Z,0
2022-12-25T07:19:21.920Z,0
2022-12-25T07:19:52.758Z,0
2022-12-25T07:20:24.044Z,0
2022-12-25T07:20:55.096Z,0
2022-12-25T07:21:25.923Z,0
2022-12-25T07:21:56.964Z,0
2022-12-25T07:22:28.049Z,0
2022-12-25T07:22:59.112Z,0
2022-12-25T07:23:29.719Z,0
2022-12-25T07:24:01.929Z,0
2022-12-25T07:24:32.028Z,0
2022-12-25T07:25:02.713Z,0
2022-12-25T07:25:37.458Z,0
2022-12-25T07:26:05.023Z,0
2022-12-25T07:26:35.823Z,0
2022-12-25T07:27:06.735Z,0
2022-12-25T07:27:37.938Z,0
2022-12-25T07:28:08.987Z,0
2022-12-25T07:28:40.023Z,0
2022-12-25T07:29:11.966Z,0
2022-12-25T07:29:42.112Z,0
2022-12-25T07:30:15.612Z,0
2022-12-25T07:30:44.164Z,0
2022-12-25T07:31:14.913Z,0
2022-12-25T07:31:45.964Z,0
2022-12-25T07:32:17.047Z,0
2022-12-25T07:32:50.260Z,0
2022-12-25T07:33:18.795Z,0
2022-12-25T07:33:49.756Z,0
2022-12-25T07:34:22.031Z,0
2022-12-25T07:34:52.059Z,0
2022-12-25T07:35:22.950Z,0
2022-12-25T07:35:54.129Z,0
2022-12-25T07:36:25.054Z,0
2022-12-25T07:36:55.986Z,0
2022-12-25T07:37:27.010Z,0
2022-12-25T07:37:58.100Z,0
2022-12-25T07:38:28.826Z,0
2022-12-25T07:38:59.710Z,0
2022-12-25T07:39:32.022Z,0
2022-12-25T07:40:02.048Z,0